sensor_id;sensor_type;location;lat;lon;timestamp;P1;durP1;ratioP1;P2;durP2;ratioP2
79377;SDS011;68959;53.132;17.984;2023-04-01T00:01:21;19.30;;;11.70;;
79377;SDS011;68959;53.132;17.984;2023-04-01T00:03:48;18.20;;;12.10;;
79377;SDS011;68959;53.132;17.984;2023-04-01T00:06:15;15.60;;;11.40;;
79377;SDS011;68959;53.132;17.984;2023-04-01T00:08:44;20.30;;;13.40;;
79377;SDS011;68959;53.132;17.984;2023-04-01T00:11:11;19.70;;;12.90;;
79377;SDS011;68959;53.132;17.984;2023-04-01T00:13:38;20.70;;;13.50;;
79377;SDS011;68959;53.132;17.984;2023-04-01T00:16:05;22.30;;;13.40;;
79377;SDS011;68959;53.132;17.984;2023-04-01T00:18:33;17.90;;;12.30;;
79377;SDS011;68959;53.132;17.984;2023-04-01T00:21:00;20.20;;;13.60;;
79377;SDS011;68959;53.132;17.984;2023-04-01T00:23:26;23.50;;;14.30;;
79377;SDS011;68959;53.132;17.984;2023-04-01T00:25:53;19.50;;;12.70;;
79377;SDS011;68959;53.132;17.984;2023-04-01T00:28:20;22.60;;;13.50;;
79377;SDS011;68959;53.132;17.984;2023-04-01T00:30:47;21.10;;;13.70;;
79377;SDS011;68959;53.132;17.984;2023-04-01T00:33:14;21.90;;;13.80;;
79377;SDS011;68959;53.132;17.984;2023-04-01T00:35:42;21.50;;;14.30;;
79377;SDS011;68959;53.132;17.984;2023-04-01T00:38:09;20.70;;;13.30;;
79377;SDS011;68959;53.132;17.984;2023-04-01T00:40:38;19.60;;;12.80;;
79377;SDS011;68959;53.132;17.984;2023-04-01T00:43:11;21.90;;;12.70;;
79377;SDS011;68959;53.132;17.984;2023-04-01T00:45:47;22.20;;;13.30;;
79377;SDS011;68959;53.132;17.984;2023-04-01T00:48:19;22.00;;;13.50;;
79377;SDS011;68959;53.132;17.984;2023-04-01T00:50:52;19.60;;;13.20;;
79377;SDS011;68959;53.132;17.984;2023-04-01T00:53:23;20.50;;;13.90;;
79377;SDS011;68959;53.132;17.984;2023-04-01T00:55:58;23.20;;;15.40;;
79377;SDS011;68959;53.132;17.984;2023-04-01T00:58:31;18.50;;;13.30;;
79377;SDS011;68959;53.132;17.984;2023-04-01T01:01:02;22.40;;;14.10;;
79377;SDS011;68959;53.132;17.984;2023-04-01T01:03:29;18.60;;;12.90;;
79377;SDS011;68959;53.132;17.984;2023-04-01T01:11:19;23.10;;;15.20;;
79377;SDS011;68959;53.132;17.984;2023-04-01T01:14:07;20.70;;;14.20;;
79377;SDS011;68959;53.132;17.984;2023-04-01T01:16:45;25.30;;;16.30;;
79377;SDS011;68959;53.132;17.984;2023-04-01T01:19:44;30.60;;;18.70;;
79377;SDS011;68959;53.132;17.984;2023-04-01T01:28:45;28.20;;;19.60;;
79377;SDS011;68959;53.132;17.984;2023-04-01T01:31:34;27.70;;;17.70;;
79377;SDS011;68959;53.132;17.984;2023-04-01T01:36:57;28.60;;;17.80;;
79377;SDS011;68959;53.132;17.984;2023-04-01T01:39:30;23.40;;;17.10;;
79377;SDS011;68959;53.132;17.984;2023-04-01T01:42:04;26.70;;;17.80;;
79377;SDS011;68959;53.132;17.984;2023-04-01T01:44:35;21.00;;;14.50;;
79377;SDS011;68959;53.132;17.984;2023-04-01T01:47:04;24.20;;;16.80;;
79377;SDS011;68959;53.132;17.984;2023-04-01T01:49:32;22.70;;;15.10;;
79377;SDS011;68959;53.132;17.984;2023-04-01T01:52:02;23.30;;;15.10;;
79377;SDS011;68959;53.132;17.984;2023-04-01T01:54:30;23.70;;;14.80;;
79377;SDS011;68959;53.132;17.984;2023-04-01T01:57:03;23.40;;;14.80;;
79377;SDS011;68959;53.132;17.984;2023-04-01T01:59:37;20.30;;;15.30;;
79377;SDS011;68959;53.132;17.984;2023-04-01T02:02:07;21.00;;;14.50;;
79377;SDS011;68959;53.132;17.984;2023-04-01T02:04:40;20.10;;;14.00;;
79377;SDS011;68959;53.132;17.984;2023-04-01T02:07:16;17.40;;;13.30;;
79377;SDS011;68959;53.132;17.984;2023-04-01T02:09:46;19.00;;;13.70;;
79377;SDS011;68959;53.132;17.984;2023-04-01T02:12:14;23.50;;;14.20;;
79377;SDS011;68959;53.132;17.984;2023-04-01T02:17:18;24.10;;;16.90;;
79377;SDS011;68959;53.132;17.984;2023-04-01T02:19:48;24.70;;;18.20;;
79377;SDS011;68959;53.132;17.984;2023-04-01T02:22:22;23.40;;;17.80;;
79377;SDS011;68959;53.132;17.984;2023-04-01T02:24:53;27.00;;;19.10;;
79377;SDS011;68959;53.132;17.984;2023-04-01T02:27:24;28.20;;;19.20;;
79377;SDS011;68959;53.132;17.984;2023-04-01T02:29:51;27.90;;;18.30;;
79377;SDS011;68959;53.132;17.984;2023-04-01T02:32:19;24.20;;;17.10;;
79377;SDS011;68959;53.132;17.984;2023-04-01T02:34:47;24.10;;;16.60;;
79377;SDS011;68959;53.132;17.984;2023-04-01T02:37:14;23.90;;;17.90;;
79377;SDS011;68959;53.132;17.984;2023-04-01T02:39:42;23.00;;;16.50;;
79377;SDS011;68959;53.132;17.984;2023-04-01T02:42:09;20.00;;;15.30;;
79377;SDS011;68959;53.132;17.984;2023-04-01T02:44:36;23.50;;;16.80;;
79377;SDS011;68959;53.132;17.984;2023-04-01T02:47:03;21.90;;;14.60;;
79377;SDS011;68959;53.132;17.984;2023-04-01T02:49:30;23.80;;;16.20;;
79377;SDS011;68959;53.132;17.984;2023-04-01T02:51:56;22.30;;;16.20;;
79377;SDS011;68959;53.132;17.984;2023-04-01T02:54:23;24.90;;;16.50;;
79377;SDS011;68959;53.132;17.984;2023-04-01T02:56:49;21.50;;;15.80;;
79377;SDS011;68959;53.132;17.984;2023-04-01T02:59:16;22.00;;;16.40;;
79377;SDS011;68959;53.132;17.984;2023-04-01T03:01:43;21.10;;;14.60;;
79377;SDS011;68959;53.132;17.984;2023-04-01T03:04:10;23.20;;;16.70;;
79377;SDS011;68959;53.132;17.984;2023-04-01T03:06:36;26.00;;;16.30;;
79377;SDS011;68959;53.132;17.984;2023-04-01T03:09:03;27.30;;;17.40;;
79377;SDS011;68959;53.132;17.984;2023-04-01T03:11:30;23.30;;;16.10;;
79377;SDS011;68959;53.132;17.984;2023-04-01T03:13:56;21.30;;;15.40;;
79377;SDS011;68959;53.132;17.984;2023-04-01T03:16:23;45.40;;;22.80;;
79377;SDS011;68959;53.132;17.984;2023-04-01T03:18:50;45.00;;;24.20;;
79377;SDS011;68959;53.132;17.984;2023-04-01T03:21:20;55.10;;;25.80;;
79377;SDS011;68959;53.132;17.984;2023-04-01T03:23:48;56.00;;;26.30;;
79377;SDS011;68959;53.132;17.984;2023-04-01T03:26:15;51.80;;;24.50;;
79377;SDS011;68959;53.132;17.984;2023-04-01T03:28:42;60.60;;;28.40;;
79377;SDS011;68959;53.132;17.984;2023-04-01T03:31:10;65.40;;;28.50;;
79377;SDS011;68959;53.132;17.984;2023-04-01T03:33:41;58.50;;;27.20;;
79377;SDS011;68959;53.132;17.984;2023-04-01T03:36:08;59.50;;;25.40;;
79377;SDS011;68959;53.132;17.984;2023-04-01T03:38:35;56.90;;;25.00;;
79377;SDS011;68959;53.132;17.984;2023-04-01T03:41:02;53.60;;;23.90;;
79377;SDS011;68959;53.132;17.984;2023-04-01T03:43:31;53.10;;;25.40;;
79377;SDS011;68959;53.132;17.984;2023-04-01T03:45:58;60.40;;;26.90;;
79377;SDS011;68959;53.132;17.984;2023-04-01T03:48:25;61.50;;;28.60;;
79377;SDS011;68959;53.132;17.984;2023-04-01T03:50:52;53.40;;;23.20;;
79377;SDS011;68959;53.132;17.984;2023-04-01T03:53:19;61.20;;;25.80;;
79377;SDS011;68959;53.132;17.984;2023-04-01T03:55:47;59.00;;;23.30;;
79377;SDS011;68959;53.132;17.984;2023-04-01T03:58:14;53.50;;;22.10;;
79377;SDS011;68959;53.132;17.984;2023-04-01T04:00:41;55.10;;;21.10;;
79377;SDS011;68959;53.132;17.984;2023-04-01T04:03:09;54.90;;;18.10;;
79377;SDS011;68959;53.132;17.984;2023-04-01T04:05:36;48.00;;;19.50;;
79377;SDS011;68959;53.132;17.984;2023-04-01T04:08:03;65.30;;;22.60;;
79377;SDS011;68959;53.132;17.984;2023-04-01T04:10:31;60.60;;;21.70;;
79377;SDS011;68959;53.132;17.984;2023-04-01T04:12:58;63.60;;;22.30;;
79377;SDS011;68959;53.132;17.984;2023-04-01T04:15:25;63.20;;;22.70;;
79377;SDS011;68959;53.132;17.984;2023-04-01T04:17:51;65.60;;;23.60;;
79377;SDS011;68959;53.132;17.984;2023-04-01T04:20:18;66.60;;;25.40;;
79377;SDS011;68959;53.132;17.984;2023-04-01T04:22:45;72.00;;;24.30;;
79377;SDS011;68959;53.132;17.984;2023-04-01T04:25:12;66.20;;;22.90;;
79377;SDS011;68959;53.132;17.984;2023-04-01T04:27:39;63.50;;;22.80;;
79377;SDS011;68959;53.132;17.984;2023-04-01T04:30:08;74.20;;;25.50;;
79377;SDS011;68959;53.132;17.984;2023-04-01T04:32:35;64.20;;;24.50;;
79377;SDS011;68959;53.132;17.984;2023-04-01T04:35:03;74.40;;;24.10;;
79377;SDS011;68959;53.132;17.984;2023-04-01T04:37:32;75.00;;;24.50;;
79377;SDS011;68959;53.132;17.984;2023-04-01T04:39:59;70.90;;;22.60;;
79377;SDS011;68959;53.132;17.984;2023-04-01T04:42:26;88.70;;;28.50;;
79377;SDS011;68959;53.132;17.984;2023-04-01T04:44:56;83.40;;;25.10;;
79377;SDS011;68959;53.132;17.984;2023-04-01T04:47:23;80.70;;;25.20;;
79377;SDS011;68959;53.132;17.984;2023-04-01T04:49:50;89.20;;;29.80;;
79377;SDS011;68959;53.132;17.984;2023-04-01T04:52:16;100.10;;;32.10;;
79377;SDS011;68959;53.132;17.984;2023-04-01T04:54:43;84.30;;;29.40;;
79377;SDS011;68959;53.132;17.984;2023-04-01T04:57:10;76.80;;;26.50;;
79377;SDS011;68959;53.132;17.984;2023-04-01T04:59:42;91.10;;;30.60;;
79377;SDS011;68959;53.132;17.984;2023-04-01T05:02:13;92.30;;;32.40;;
79377;SDS011;68959;53.132;17.984;2023-04-01T05:04:39;88.60;;;30.80;;
79377;SDS011;68959;53.132;17.984;2023-04-01T05:07:09;89.80;;;29.90;;
79377;SDS011;68959;53.132;17.984;2023-04-01T05:09:36;86.90;;;31.30;;
79377;SDS011;68959;53.132;17.984;2023-04-01T05:12:03;90.10;;;29.90;;
79377;SDS011;68959;53.132;17.984;2023-04-01T05:14:39;97.00;;;30.30;;
79377;SDS011;68959;53.132;17.984;2023-04-01T05:17:09;99.10;;;33.20;;
79377;SDS011;68959;53.132;17.984;2023-04-01T05:19:37;95.40;;;30.50;;
79377;SDS011;68959;53.132;17.984;2023-04-01T05:22:05;110.70;;;36.30;;
79377;SDS011;68959;53.132;17.984;2023-04-01T05:24:32;105.40;;;34.60;;
79377;SDS011;68959;53.132;17.984;2023-04-01T05:26:59;113.60;;;34.30;;
79377;SDS011;68959;53.132;17.984;2023-04-01T05:29:27;102.90;;;32.30;;
79377;SDS011;68959;53.132;17.984;2023-04-01T05:31:59;100.90;;;31.20;;
79377;SDS011;68959;53.132;17.984;2023-04-01T05:34:26;107.00;;;37.80;;
79377;SDS011;68959;53.132;17.984;2023-04-01T05:36:53;118.80;;;37.50;;
79377;SDS011;68959;53.132;17.984;2023-04-01T05:39:20;104.70;;;39.10;;
79377;SDS011;68959;53.132;17.984;2023-04-01T05:41:47;115.40;;;39.40;;
79377;SDS011;68959;53.132;17.984;2023-04-01T05:44:13;103.80;;;35.60;;
79377;SDS011;68959;53.132;17.984;2023-04-01T05:46:40;99.60;;;35.60;;
79377;SDS011;68959;53.132;17.984;2023-04-01T05:49:14;97.90;;;33.50;;
79377;SDS011;68959;53.132;17.984;2023-04-01T05:51:41;100.10;;;35.90;;
79377;SDS011;68959;53.132;17.984;2023-04-01T05:54:08;97.60;;;36.60;;
79377;SDS011;68959;53.132;17.984;2023-04-01T05:56:35;95.90;;;35.30;;
79377;SDS011;68959;53.132;17.984;2023-04-01T05:59:02;91.70;;;34.80;;
79377;SDS011;68959;53.132;17.984;2023-04-01T06:01:29;92.50;;;35.10;;
79377;SDS011;68959;53.132;17.984;2023-04-01T06:03:56;88.80;;;37.00;;
79377;SDS011;68959;53.132;17.984;2023-04-01T06:06:24;89.00;;;36.20;;
79377;SDS011;68959;53.132;17.984;2023-04-01T06:09:05;89.30;;;37.10;;
79377;SDS011;68959;53.132;17.984;2023-04-01T06:11:44;102.00;;;37.90;;
79377;SDS011;68959;53.132;17.984;2023-04-01T06:25:04;89.90;;;34.90;;
79377;SDS011;68959;53.132;17.984;2023-04-01T06:30:38;72.90;;;29.00;;
79377;SDS011;68959;53.132;17.984;2023-04-01T06:39:01;75.50;;;28.50;;
79377;SDS011;68959;53.132;17.984;2023-04-01T06:41:55;71.00;;;31.10;;
79377;SDS011;68959;53.132;17.984;2023-04-01T06:48:28;68.80;;;28.80;;
79377;SDS011;68959;53.132;17.984;2023-04-01T06:51:50;58.80;;;26.30;;
79377;SDS011;68959;53.132;17.984;2023-04-01T06:54:47;51.30;;;26.30;;
79377;SDS011;68959;53.132;17.984;2023-04-01T06:57:44;57.30;;;27.90;;
79377;SDS011;68959;53.132;17.984;2023-04-01T07:00:24;57.80;;;28.20;;
79377;SDS011;68959;53.132;17.984;2023-04-01T07:06:13;65.30;;;32.00;;
79377;SDS011;68959;53.132;17.984;2023-04-01T07:08:51;61.00;;;27.30;;
79377;SDS011;68959;53.132;17.984;2023-04-01T07:11:24;55.60;;;28.10;;
79377;SDS011;68959;53.132;17.984;2023-04-01T07:14:30;59.50;;;28.80;;
79377;SDS011;68959;53.132;17.984;2023-04-01T07:22:30;48.50;;;26.80;;
79377;SDS011;68959;53.132;17.984;2023-04-01T07:25:18;59.20;;;27.30;;
79377;SDS011;68959;53.132;17.984;2023-04-01T07:28:03;51.70;;;27.50;;
79377;SDS011;68959;53.132;17.984;2023-04-01T07:30:37;60.60;;;27.70;;
79377;SDS011;68959;53.132;17.984;2023-04-01T07:33:19;50.80;;;27.70;;
79377;SDS011;68959;53.132;17.984;2023-04-01T07:35:55;61.10;;;26.60;;
79377;SDS011;68959;53.132;17.984;2023-04-01T07:38:36;48.70;;;25.20;;
79377;SDS011;68959;53.132;17.984;2023-04-01T07:41:23;51.40;;;27.80;;
79377;SDS011;68959;53.132;17.984;2023-04-01T07:44:18;52.50;;;26.00;;
79377;SDS011;68959;53.132;17.984;2023-04-01T07:55:18;67.00;;;33.60;;
79377;SDS011;68959;53.132;17.984;2023-04-01T08:00:48;64.30;;;29.40;;
79377;SDS011;68959;53.132;17.984;2023-04-01T08:18:20;49.80;;;25.70;;
79377;SDS011;68959;53.132;17.984;2023-04-01T08:21:05;50.10;;;27.10;;
79377;SDS011;68959;53.132;17.984;2023-04-01T08:23:46;45.00;;;23.70;;
79377;SDS011;68959;53.132;17.984;2023-04-01T08:29:10;47.80;;;24.10;;
79377;SDS011;68959;53.132;17.984;2023-04-01T08:32:58;34.90;;;19.40;;
79377;SDS011;68959;53.132;17.984;2023-04-01T08:37:45;27.60;;;16.80;;
79377;SDS011;68959;53.132;17.984;2023-04-01T08:43:28;25.40;;;16.30;;
79377;SDS011;68959;53.132;17.984;2023-04-01T08:46:17;28.90;;;17.40;;
79377;SDS011;68959;53.132;17.984;2023-04-01T08:52:22;26.10;;;17.30;;
79377;SDS011;68959;53.132;17.984;2023-04-01T08:55:04;27.30;;;18.20;;
79377;SDS011;68959;53.132;17.984;2023-04-01T09:06:44;26.70;;;17.00;;
79377;SDS011;68959;53.132;17.984;2023-04-01T09:20:32;15.30;;;11.50;;
79377;SDS011;68959;53.132;17.984;2023-04-01T09:23:19;15.00;;;10.30;;
79377;SDS011;68959;53.132;17.984;2023-04-01T09:37:26;16.30;;;12.30;;
79377;SDS011;68959;53.132;17.984;2023-04-01T09:57:09;11.30;;;8.90;;
79377;SDS011;68959;53.132;17.984;2023-04-01T10:00:15;9.90;;;7.90;;
79377;SDS011;68959;53.132;17.984;2023-04-01T10:54:07;10.90;;;7.00;;
79377;SDS011;68959;53.132;17.984;2023-04-01T11:01:07;7.10;;;5.70;;
79377;SDS011;68959;53.132;17.984;2023-04-01T11:19:46;8.50;;;6.50;;
79377;SDS011;68959;53.132;17.984;2023-04-01T11:29:04;12.80;;;7.20;;
79377;SDS011;68959;53.132;17.984;2023-04-01T11:58:03;9.40;;;6.10;;
79377;SDS011;68959;53.132;17.984;2023-04-01T12:06:25;15.00;;;7.20;;
79377;SDS011;68959;53.132;17.984;2023-04-01T12:11:38;8.40;;;6.30;;
79377;SDS011;68959;53.132;17.984;2023-04-01T12:19:40;11.90;;;7.20;;
79377;SDS011;68959;53.132;17.984;2023-04-01T12:27:53;8.50;;;6.20;;
79377;SDS011;68959;53.132;17.984;2023-04-01T12:30:34;8.20;;;6.20;;
79377;SDS011;68959;53.132;17.984;2023-04-01T12:38:35;7.20;;;5.20;;
79377;SDS011;68959;53.132;17.984;2023-04-01T12:57:40;8.80;;;4.10;;
79377;SDS011;68959;53.132;17.984;2023-04-01T13:03:02;5.60;;;3.80;;
79377;SDS011;68959;53.132;17.984;2023-04-01T13:08:41;5.60;;;3.80;;
79377;SDS011;68959;53.132;17.984;2023-04-01T13:11:36;4.20;;;3.20;;
79377;SDS011;68959;53.132;17.984;2023-04-01T13:25:39;4.70;;;3.50;;
79377;SDS011;68959;53.132;17.984;2023-04-01T13:31:21;7.50;;;3.70;;
79377;SDS011;68959;53.132;17.984;2023-04-01T13:45:17;4.90;;;3.30;;
79377;SDS011;68959;53.132;17.984;2023-04-01T13:56:48;5.30;;;3.40;;
79377;SDS011;68959;53.132;17.984;2023-04-01T14:02:15;5.40;;;3.80;;
79377;SDS011;68959;53.132;17.984;2023-04-01T14:10:34;8.30;;;4.10;;
79377;SDS011;68959;53.132;17.984;2023-04-01T14:15:50;7.90;;;4.70;;
79377;SDS011;68959;53.132;17.984;2023-04-01T14:18:42;6.10;;;3.50;;
79377;SDS011;68959;53.132;17.984;2023-04-01T14:21:43;6.40;;;3.90;;
79377;SDS011;68959;53.132;17.984;2023-04-01T14:24:27;8.20;;;3.80;;
79377;SDS011;68959;53.132;17.984;2023-04-01T14:27:24;9.20;;;4.60;;
79377;SDS011;68959;53.132;17.984;2023-04-01T14:30:20;6.30;;;4.00;;
79377;SDS011;68959;53.132;17.984;2023-04-01T14:32:58;4.50;;;3.50;;
79377;SDS011;68959;53.132;17.984;2023-04-01T14:35:41;8.60;;;4.50;;
79377;SDS011;68959;53.132;17.984;2023-04-01T14:41:20;5.60;;;4.30;;
79377;SDS011;68959;53.132;17.984;2023-04-01T14:49:53;6.10;;;3.90;;
79377;SDS011;68959;53.132;17.984;2023-04-01T14:52:33;5.60;;;4.20;;
79377;SDS011;68959;53.132;17.984;2023-04-01T14:55:21;6.50;;;4.30;;
79377;SDS011;68959;53.132;17.984;2023-04-01T14:57:59;5.40;;;4.10;;
79377;SDS011;68959;53.132;17.984;2023-04-01T15:03:29;4.80;;;4.00;;
79377;SDS011;68959;53.132;17.984;2023-04-01T15:09:02;7.10;;;4.30;;
79377;SDS011;68959;53.132;17.984;2023-04-01T15:11:53;7.80;;;5.00;;
79377;SDS011;68959;53.132;17.984;2023-04-01T15:14:51;7.00;;;4.20;;
79377;SDS011;68959;53.132;17.984;2023-04-01T15:20:16;8.60;;;4.70;;
79377;SDS011;68959;53.132;17.984;2023-04-01T15:31:18;6.20;;;4.20;;
79377;SDS011;68959;53.132;17.984;2023-04-01T15:36:44;10.70;;;4.70;;
79377;SDS011;68959;53.132;17.984;2023-04-01T15:39:30;7.00;;;4.40;;
79377;SDS011;68959;53.132;17.984;2023-04-01T15:48:13;6.50;;;4.80;;
79377;SDS011;68959;53.132;17.984;2023-04-01T15:53:42;6.20;;;4.50;;
79377;SDS011;68959;53.132;17.984;2023-04-01T15:56:36;6.20;;;4.80;;
79377;SDS011;68959;53.132;17.984;2023-04-01T15:59:24;8.60;;;4.90;;
79377;SDS011;68959;53.132;17.984;2023-04-01T16:05:06;6.90;;;5.30;;
79377;SDS011;68959;53.132;17.984;2023-04-01T16:15:57;6.40;;;4.60;;
79377;SDS011;68959;53.132;17.984;2023-04-01T16:18:44;6.50;;;5.10;;
79377;SDS011;68959;53.132;17.984;2023-04-01T16:21:14;7.30;;;5.00;;
79377;SDS011;68959;53.132;17.984;2023-04-01T16:23:59;8.50;;;4.10;;
79377;SDS011;68959;53.132;17.984;2023-04-01T16:32:35;5.80;;;3.90;;
79377;SDS011;68959;53.132;17.984;2023-04-01T16:35:25;5.40;;;4.40;;
79377;SDS011;68959;53.132;17.984;2023-04-01T16:39:18;4.40;;;3.20;;
79377;SDS011;68959;53.132;17.984;2023-04-01T16:41:31;8.00;;;4.60;;
79377;SDS011;68959;53.132;17.984;2023-04-01T16:49:25;5.70;;;4.40;;
79377;SDS011;68959;53.132;17.984;2023-04-01T16:57:25;7.10;;;4.90;;
79377;SDS011;68959;53.132;17.984;2023-04-01T17:00:09;6.60;;;4.10;;
79377;SDS011;68959;53.132;17.984;2023-04-01T17:06:31;5.10;;;3.60;;
79377;SDS011;68959;53.132;17.984;2023-04-01T17:11:52;5.60;;;2.60;;
79377;SDS011;68959;53.132;17.984;2023-04-01T17:14:54;6.50;;;3.00;;
79377;SDS011;68959;53.132;17.984;2023-04-01T17:28:58;4.30;;;3.00;;
79377;SDS011;68959;53.132;17.984;2023-04-01T17:31:52;7.50;;;3.30;;
79377;SDS011;68959;53.132;17.984;2023-04-01T17:37:38;5.60;;;2.40;;
79377;SDS011;68959;53.132;17.984;2023-04-01T17:40:35;4.70;;;2.60;;
79377;SDS011;68959;53.132;17.984;2023-04-01T17:43:22;5.20;;;2.60;;
79377;SDS011;68959;53.132;17.984;2023-04-01T17:46:05;5.20;;;3.30;;
79377;SDS011;68959;53.132;17.984;2023-04-01T17:48:49;4.50;;;3.40;;
79377;SDS011;68959;53.132;17.984;2023-04-01T18:08:06;7.20;;;3.90;;
79377;SDS011;68959;53.132;17.984;2023-04-01T18:13:20;8.30;;;5.10;;
79377;SDS011;68959;53.132;17.984;2023-04-01T18:24:16;8.80;;;6.40;;
79377;SDS011;68959;53.132;17.984;2023-04-01T18:34:57;10.00;;;7.00;;
79377;SDS011;68959;53.132;17.984;2023-04-01T18:37:46;10.90;;;9.00;;
79377;SDS011;68959;53.132;17.984;2023-04-01T18:40:29;14.80;;;9.80;;
79377;SDS011;68959;53.132;17.984;2023-04-01T18:43:21;12.30;;;8.40;;
79377;SDS011;68959;53.132;17.984;2023-04-01T18:45:51;14.00;;;9.90;;
79377;SDS011;68959;53.132;17.984;2023-04-01T18:51:37;11.80;;;8.80;;
79377;SDS011;68959;53.132;17.984;2023-04-01T18:54:19;9.30;;;6.20;;
79377;SDS011;68959;53.132;17.984;2023-04-01T18:57:02;11.70;;;7.90;;
79377;SDS011;68959;53.132;17.984;2023-04-01T18:59:36;11.80;;;9.20;;
79377;SDS011;68959;53.132;17.984;2023-04-01T19:05:07;10.10;;;5.50;;
79377;SDS011;68959;53.132;17.984;2023-04-01T19:07:50;9.50;;;6.90;;
79377;SDS011;68959;53.132;17.984;2023-04-01T19:22:13;18.10;;;11.90;;
79377;SDS011;68959;53.132;17.984;2023-04-01T19:35:49;15.40;;;10.50;;
79377;SDS011;68959;53.132;17.984;2023-04-01T19:41:11;17.80;;;11.30;;
79377;SDS011;68959;53.132;17.984;2023-04-01T19:43:50;21.40;;;12.10;;
79377;SDS011;68959;53.132;17.984;2023-04-01T19:46:40;24.10;;;12.70;;
79377;SDS011;68959;53.132;17.984;2023-04-01T19:51:57;27.00;;;12.70;;
79377;SDS011;68959;53.132;17.984;2023-04-01T19:54:51;20.60;;;10.20;;
79377;SDS011;68959;53.132;17.984;2023-04-01T19:57:34;18.30;;;12.10;;
79377;SDS011;68959;53.132;17.984;2023-04-01T20:05:47;22.40;;;12.80;;
79377;SDS011;68959;53.132;17.984;2023-04-01T20:08:25;20.60;;;12.80;;
79377;SDS011;68959;53.132;17.984;2023-04-01T20:19:26;28.00;;;14.00;;
79377;SDS011;68959;53.132;17.984;2023-04-01T20:21:57;23.20;;;13.70;;
79377;SDS011;68959;53.132;17.984;2023-04-01T20:24:29;24.20;;;14.70;;
79377;SDS011;68959;53.132;17.984;2023-04-01T20:27:20;20.30;;;13.40;;
79377;SDS011;68959;53.132;17.984;2023-04-01T20:44:19;21.30;;;13.90;;
79377;SDS011;68959;53.132;17.984;2023-04-01T20:46:52;26.60;;;13.80;;
79377;SDS011;68959;53.132;17.984;2023-04-01T20:49:39;17.70;;;10.50;;
79377;SDS011;68959;53.132;17.984;2023-04-01T20:54:50;19.60;;;13.90;;
79377;SDS011;68959;53.132;17.984;2023-04-01T20:57:38;26.10;;;13.70;;
79377;SDS011;68959;53.132;17.984;2023-04-01T21:00:21;17.30;;;11.70;;
79377;SDS011;68959;53.132;17.984;2023-04-01T21:03:03;17.60;;;11.50;;
79377;SDS011;68959;53.132;17.984;2023-04-01T21:11:16;20.30;;;14.10;;
79377;SDS011;68959;53.132;17.984;2023-04-01T21:13:56;19.40;;;12.80;;
79377;SDS011;68959;53.132;17.984;2023-04-01T21:16:46;19.80;;;11.40;;
79377;SDS011;68959;53.132;17.984;2023-04-01T21:19:43;17.50;;;10.30;;
79377;SDS011;68959;53.132;17.984;2023-04-01T21:25:17;15.60;;;8.80;;
79377;SDS011;68959;53.132;17.984;2023-04-01T21:33:17;20.50;;;12.80;;
79377;SDS011;68959;53.132;17.984;2023-04-01T21:49:47;17.60;;;12.20;;
79377;SDS011;68959;53.132;17.984;2023-04-01T21:53:38;22.10;;;13.40;;
79377;SDS011;68959;53.132;17.984;2023-04-01T21:56:09;18.80;;;11.90;;
79377;SDS011;68959;53.132;17.984;2023-04-01T22:07:17;13.50;;;8.40;;
79377;SDS011;68959;53.132;17.984;2023-04-01T22:10:03;21.40;;;12.90;;
79377;SDS011;68959;53.132;17.984;2023-04-01T22:18:20;19.50;;;12.30;;
79377;SDS011;68959;53.132;17.984;2023-04-01T22:21:06;19.40;;;13.10;;
79377;SDS011;68959;53.132;17.984;2023-04-01T22:23:42;25.80;;;13.00;;
79377;SDS011;68959;53.132;17.984;2023-04-01T22:31:44;20.20;;;13.50;;
79377;SDS011;68959;53.132;17.984;2023-04-01T22:34:23;26.00;;;17.00;;
79377;SDS011;68959;53.132;17.984;2023-04-01T22:40:14;19.90;;;13.40;;
79377;SDS011;68959;53.132;17.984;2023-04-01T22:42:44;23.40;;;13.70;;
79377;SDS011;68959;53.132;17.984;2023-04-01T22:47:40;18.60;;;13.80;;
79377;SDS011;68959;53.132;17.984;2023-04-01T22:50:28;24.50;;;15.90;;
79377;SDS011;68959;53.132;17.984;2023-04-01T22:55:59;12.70;;;7.90;;
79377;SDS011;68959;53.132;17.984;2023-04-01T22:58:35;17.90;;;11.50;;
79377;SDS011;68959;53.132;17.984;2023-04-01T23:01:12;17.30;;;11.00;;
79377;SDS011;68959;53.132;17.984;2023-04-01T23:03:43;23.10;;;12.40;;
79377;SDS011;68959;53.132;17.984;2023-04-01T23:06:16;17.40;;;11.70;;
79377;SDS011;68959;53.132;17.984;2023-04-01T23:09:10;22.30;;;12.90;;
79377;SDS011;68959;53.132;17.984;2023-04-01T23:11:57;20.30;;;12.80;;
79377;SDS011;68959;53.132;17.984;2023-04-01T23:17:23;25.20;;;13.70;;
79377;SDS011;68959;53.132;17.984;2023-04-01T23:25:54;16.90;;;11.60;;
79377;SDS011;68959;53.132;17.984;2023-04-01T23:28:30;9.90;;;5.90;;
79377;SDS011;68959;53.132;17.984;2023-04-01T23:31:24;19.70;;;11.80;;
79377;SDS011;68959;53.132;17.984;2023-04-01T23:33:56;22.50;;;12.30;;
79377;SDS011;68959;53.132;17.984;2023-04-01T23:36:25;18.90;;;13.20;;
79377;SDS011;68959;53.132;17.984;2023-04-01T23:38:53;18.00;;;11.80;;
79377;SDS011;68959;53.132;17.984;2023-04-01T23:41:27;18.80;;;7.70;;
79377;SDS011;68959;53.132;17.984;2023-04-01T23:44:04;14.60;;;9.50;;
79377;SDS011;68959;53.132;17.984;2023-04-01T23:46:35;13.90;;;10.30;;
79377;SDS011;68959;53.132;17.984;2023-04-01T23:49:04;14.30;;;10.80;;
79377;SDS011;68959;53.132;17.984;2023-04-01T23:51:46;14.30;;;8.80;;
79377;SDS011;68959;53.132;17.984;2023-04-01T23:54:29;17.20;;;11.30;;
79377;SDS011;68959;53.132;17.984;2023-04-01T23:56:59;14.40;;;10.60;;
79377;SDS011;68959;53.132;17.984;2023-04-01T23:59:34;12.20;;;9.00;;
